Time;durP1;ratioP1;P1;durP2;ratioP2;P2;SDS_P1;SDS_P2;PMS_P1;PMS_P2;Temp;Humidity;BMP_temperature;BMP_pressure;BME280_temperature;BME280_humidity;BME280_pressure;Samples;Min_cycle;Max_cycle;Signal;HPM_P1;HPM_P2
2023/12/24 00:02:14;;;;;;;18.58;2.72;;;12.30;99.90;;;;;;5050823;28;20547;-84
2023/12/24 00:04:41;;;;;;;11.68;2.50;;;12.30;99.90;;;;;;5064496;28;20096;-84
2023/12/24 00:07:06;;;;;;;11.95;2.92;;;12.30;99.90;;;;;;5055472;28;20029;-84
2023/12/24 00:09:32;;;;;;;10.82;2.40;;;12.20;99.90;;;;;;5067164;28;20027;-83
2023/12/24 00:11:57;;;;;;;10.18;2.17;;;12.20;99.90;;;;;;5068512;28;20387;-84
2023/12/24 00:14:23;;;;;;;11.13;2.50;;;;;;;;;;5050295;28;20090;-84
2023/12/24 00:16:49;;;;;;;15.82;2.53;;;12.20;99.90;;;;;;5067624;28;20060;-83
2023/12/24 00:19:14;;;;;;;11.07;2.42;;;12.60;99.90;;;;;;5068820;28;20029;-84
2023/12/24 00:21:42;;;;;;;10.02;2.55;;;12.10;99.90;;;;;;5069976;28;20108;-83
2023/12/24 00:24:07;;;;;;;12.98;2.70;;;12.50;99.90;;;;;;5067931;28;20115;-84
2023/12/24 00:26:33;;;;;;;16.00;2.70;;;12.50;99.90;;;;;;5070659;28;20108;-83
2023/12/24 00:28:58;;;;;;;20.17;2.80;;;12.00;99.90;;;;;;5068157;28;20044;-84
2023/12/24 00:31:24;;;;;;;16.98;2.85;;;12.30;99.90;;;;;;5050020;28;20032;-83
2023/12/24 00:33:50;;;;;;;14.18;3.22;;;12.40;99.90;;;;;;5049997;28;20055;-83
2023/12/24 00:36:15;;;;;;;14.30;2.45;;;12.60;99.90;;;;;;5069587;28;20036;-83
2023/12/24 00:38:41;;;;;;;9.25;2.50;;;12.00;99.90;;;;;;5043213;28;20036;-84
2023/12/24 00:41:06;;;;;;;13.68;2.42;;;12.10;99.90;;;;;;5059173;28;20033;-83
2023/12/24 00:43:33;;;;;;;16.30;2.33;;;12.50;99.90;;;;;;5063247;28;20169;-83
2023/12/24 00:45:58;;;;;;;14.95;3.45;;;12.00;99.90;;;;;;5067810;28;20108;-83
2023/12/24 00:48:24;;;;;;;18.23;3.70;;;11.80;99.90;;;;;;5069219;28;20162;-84
2023/12/24 00:50:49;;;;;;;12.25;3.30;;;12.10;99.90;;;;;;5049912;28;20407;-83
2023/12/24 00:53:15;;;;;;;13.70;2.95;;;12.40;99.90;;;;;;5069113;28;20074;-83
2023/12/24 00:55:41;;;;;;;14.35;2.00;;;12.20;99.90;;;;;;5065357;28;20027;-83
2023/12/24 00:58:07;;;;;;;13.35;2.55;;;12.10;99.90;;;;;;5049823;28;20028;-83
2023/12/24 01:00:33;;;;;;;14.30;2.70;;;12.70;99.90;;;;;;5063942;28;20028;-84
2023/12/24 01:02:58;;;;;;;9.00;2.80;;;12.80;99.90;;;;;;5064619;28;20528;-83
2023/12/24 01:05:24;;;;;;;12.85;2.38;;;12.10;99.90;;;;;;5059852;28;20499;-83
2023/12/24 01:07:49;;;;;;;15.05;2.67;;;11.70;99.90;;;;;;5035265;28;20024;-83
2023/12/24 01:10:15;;;;;;;17.17;2.80;;;12.10;99.90;;;;;;5065990;28;20016;-83
2023/12/24 01:12:42;;;;;;;13.68;2.63;;;11.50;99.90;;;;;;5066020;28;20017;-84
2023/12/24 01:15:08;;;;;;;15.93;2.38;;;13.00;99.90;;;;;;5068282;28;20035;-83
2023/12/24 01:17:34;;;;;;;10.00;2.25;;;11.50;99.90;;;;;;5067883;28;20358;-84
2023/12/24 01:20:00;;;;;;;15.43;2.80;;;12.20;99.90;;;;;;5065197;28;20085;-83
2023/12/24 01:22:25;;;;;;;14.05;2.60;;;12.60;99.90;;;;;;5066915;28;20403;-83
2023/12/24 01:24:51;;;;;;;13.73;2.72;;;11.90;99.90;;;;;;5068551;28;20082;-83
2023/12/24 01:27:17;;;;;;;10.77;2.67;;;12.20;99.90;;;;;;5067397;28;20036;-83
2023/12/24 01:29:42;;;;;;;13.82;2.53;;;12.80;99.90;;;;;;5068688;28;20098;-83
2023/12/24 01:32:08;;;;;;;16.60;2.70;;;12.10;99.90;;;;;;5049871;28;20025;-83
2023/12/24 01:34:33;;;;;;;11.45;2.72;;;12.40;99.90;;;;;;5068624;28;20069;-83
2023/12/24 01:36:59;;;;;;;12.35;2.65;;;12.40;99.90;;;;;;5062429;28;20033;-83
2023/12/24 01:39:25;;;;;;;11.00;2.70;;;12.40;99.90;;;;;;5065815;28;20100;-83
2023/12/24 01:41:51;;;;;;;12.45;2.42;;;12.10;99.90;;;;;;5048596;28;20032;-83
2023/12/24 01:44:17;;;;;;;12.10;2.45;;;12.10;99.90;;;;;;5058964;28;20032;-83
2023/12/24 01:46:43;;;;;;;8.82;2.05;;;12.30;99.90;;;;;;5067286;28;20496;-84
2023/12/24 01:49:13;;;;;;;15.00;3.45;;;12.50;99.90;;;;;;5051172;28;20028;-84
2023/12/24 01:51:39;;;;;;;11.60;2.50;;;12.00;99.90;;;;;;5066709;28;20044;-84
2023/12/24 01:54:05;;;;;;;10.63;2.22;;;12.10;99.90;;;;;;5066286;28;20103;-83
2023/12/24 01:56:30;;;;;;;10.98;2.58;;;12.90;99.90;;;;;;5048292;28;20029;-84
2023/12/24 01:58:57;;;;;;;7.45;2.13;;;12.60;99.90;;;;;;5065896;28;20028;-83
2023/12/24 02:01:23;;;;;;;9.55;2.30;;;12.30;99.90;;;;;;5067260;28;20554;-84
2023/12/24 02:03:49;;;;;;;12.93;2.40;;;12.60;99.90;;;;;;5066364;28;20040;-84
2023/12/24 02:06:15;;;;;;;12.63;2.42;;;12.10;99.90;;;;;;5065655;28;20020;-83
2023/12/24 02:08:41;;;;;;;12.02;2.55;;;12.70;99.90;;;;;;5065840;28;20105;-83
2023/12/24 02:11:08;;;;;;;14.77;3.55;;;12.20;99.90;;;;;;5066639;28;20472;-84
2023/12/24 02:13:34;;;;;;;13.75;2.90;;;12.10;99.90;;;;;;5067014;28;20090;-83
2023/12/24 02:16:02;;;;;;;11.25;2.35;;;12.60;99.90;;;;;;5065098;28;20028;-83
2023/12/24 02:18:28;;;;;;;10.02;2.10;;;11.70;99.90;;;;;;5067236;28;20028;-83
2023/12/24 02:21:02;;;;;;;10.88;2.30;;;12.20;99.90;;;;;;5067992;28;20028;-83
2023/12/24 02:23:28;;;;;;;9.73;2.22;;;11.80;99.90;;;;;;5067048;28;20037;-84
2023/12/24 02:25:56;;;;;;;8.75;2.03;;;11.50;99.90;;;;;;5067795;28;20035;-83
2023/12/24 02:28:25;;;;;;;15.65;2.88;;;11.50;99.90;;;;;;5067194;28;20025;-84
2023/12/24 02:30:54;;;;;;;14.30;2.55;;;12.00;99.90;;;;;;5067907;28;20060;-84
2023/12/24 02:33:21;;;;;;;14.77;2.83;;;12.40;99.90;;;;;;5053140;28;20037;-84
2023/12/24 02:35:48;;;;;;;13.00;2.78;;;12.10;99.90;;;;;;5028851;28;20078;-84
2023/12/24 02:38:14;;;;;;;14.02;2.53;;;12.00;99.90;;;;;;5048611;28;20052;-83
2023/12/24 02:40:40;;;;;;;17.17;2.50;;;11.60;99.90;;;;;;5040732;28;20067;-83
2023/12/24 02:43:05;;;;;;;13.25;2.28;;;12.00;99.90;;;;;;5043665;28;20476;-84
2023/12/24 02:45:31;;;;;;;9.25;2.40;;;12.10;99.90;;;;;;5053608;28;20087;-84
2023/12/24 02:47:56;;;;;;;17.50;2.97;;;12.20;99.90;;;;;;5047908;28;20512;-84
2023/12/24 02:50:22;;;;;;;9.43;2.17;;;12.00;99.90;;;;;;5049842;28;20388;-84
2023/12/24 02:52:48;;;;;;;12.15;2.35;;;12.10;99.90;;;;;;5067632;28;20025;-83
2023/12/24 02:55:13;;;;;;;11.70;2.00;;;12.00;99.90;;;;;;5068871;28;20032;-84
2023/12/24 02:57:39;;;;;;;12.05;2.67;;;12.10;99.90;;;;;;5066819;28;20021;-84
2023/12/24 03:00:08;;;;;;;12.40;2.13;;;;;;;;;;5066865;28;20401;-83
2023/12/24 03:02:34;;;;;;;12.50;2.60;;;11.10;99.90;;;;;;5050105;28;20514;-84
2023/12/24 03:04:59;;;;;;;10.48;2.55;;;11.70;99.90;;;;;;5052046;28;20037;-84
2023/12/24 03:07:27;;;;;;;10.63;2.40;;;12.00;99.90;;;;;;5063473;28;20032;-84
2023/12/24 03:09:52;;;;;;;11.80;2.22;;;11.70;99.90;;;;;;5049898;28;20025;-84
2023/12/24 03:12:18;;;;;;;16.73;3.42;;;11.50;99.90;;;;;;5063649;28;20051;-83
2023/12/24 03:14:43;;;;;;;9.88;2.53;;;12.00;99.90;;;;;;5051783;28;20083;-84
2023/12/24 03:17:09;;;;;;;13.93;2.15;;;11.60;99.90;;;;;;5054729;28;20021;-83
2023/12/24 03:19:34;;;;;;;14.80;2.92;;;11.60;99.90;;;;;;5068408;28;20053;-83
2023/12/24 03:22:00;;;;;;;12.63;2.42;;;11.60;99.90;;;;;;5071633;28;20021;-83
2023/12/24 03:24:26;;;;;;;11.05;2.00;;;11.60;99.90;;;;;;5070292;28;20397;-83
2023/12/24 03:26:51;;;;;;;11.85;2.03;;;12.00;99.90;;;;;;5053535;28;20024;-83
2023/12/24 03:29:17;;;;;;;14.98;2.75;;;11.60;99.90;;;;;;5071606;28;20103;-83
2023/12/24 03:31:43;;;;;;;12.00;2.35;;;11.50;99.90;;;;;;5066846;28;20482;-83
2023/12/24 03:34:08;;;;;;;13.48;2.58;;;11.80;99.90;;;;;;5071384;28;20016;-83
2023/12/24 03:36:34;;;;;;;11.43;2.22;;;12.00;99.90;;;;;;5063410;28;20059;-84
2023/12/24 03:39:00;;;;;;;13.07;2.58;;;12.10;99.90;;;;;;5064182;28;20025;-83
2023/12/24 03:41:25;;;;;;;18.88;3.33;;;12.20;99.90;;;;;;5069385;28;20115;-83
2023/12/24 03:43:51;;;;;;;20.67;2.67;;;12.20;99.90;;;;;;5067029;28;20382;-85
2023/12/24 03:46:20;;;;;;;10.40;2.50;;;12.00;99.90;;;;;;5070280;28;20037;-83
2023/12/24 03:48:45;;;;;;;10.13;2.50;;;11.90;99.90;;;;;;5060272;28;20025;-85
2023/12/24 03:51:11;;;;;;;13.27;2.58;;;11.40;99.90;;;;;;5057334;28;20477;-83
2023/12/24 03:53:38;;;;;;;11.35;2.72;;;;;;;;;;5051138;28;20461;-83
2023/12/24 03:56:08;;;;;;;12.32;2.60;;;10.80;99.90;;;;;;5066525;28;20032;-86
2023/12/24 03:58:34;;;;;;;12.85;2.50;;;10.90;99.90;;;;;;5070999;28;20039;-84
2023/12/24 04:00:59;;;;;;;14.32;2.40;;;11.70;99.90;;;;;;5070822;28;20025;-83
2023/12/24 04:03:25;;;;;;;16.30;2.60;;;11.70;99.90;;;;;;5070463;28;20085;-84
2023/12/24 04:05:51;;;;;;;12.85;2.38;;;11.50;99.90;;;;;;5052900;28;20020;-84
2023/12/24 04:08:16;;;;;;;15.95;2.33;;;11.80;99.90;;;;;;5055128;28;20463;-83
2023/12/24 04:10:42;;;;;;;13.77;2.90;;;11.70;99.90;;;;;;5050577;28;20032;-84
2023/12/24 04:13:08;;;;;;;11.95;2.40;;;;;;;;;;5050722;28;20354;-83
2023/12/24 04:15:34;;;;;;;14.93;2.65;;;11.40;99.90;;;;;;5050690;28;20455;-87
2023/12/24 04:18:01;;;;;;;17.10;3.05;;;11.90;99.90;;;;;;5032897;28;20068;-88
2023/12/24 04:20:26;;;;;;;12.40;2.83;;;12.10;99.90;;;;;;5050297;28;20025;-83
2023/12/24 04:22:52;;;;;;;13.93;2.83;;;12.00;99.90;;;;;;5049800;28;20043;-88
2023/12/24 04:25:17;;;;;;;11.20;2.30;;;12.20;99.90;;;;;;5051053;28;20035;-88
2023/12/24 04:27:43;;;;;;;15.32;3.03;;;11.80;99.90;;;;;;5032523;28;20484;-83
2023/12/24 04:30:09;;;;;;;15.43;2.72;;;;;;;;;;5050412;28;20343;-84
2023/12/24 04:32:35;;;;;;;15.07;2.50;;;10.80;99.90;;;;;;5050157;28;20380;-83
2023/12/24 04:35:01;;;;;;;15.45;2.30;;;11.20;99.90;;;;;;5032404;28;20025;-82
2023/12/24 04:37:26;;;;;;;12.80;2.53;;;10.60;99.90;;;;;;5032263;28;20017;-83
2023/12/24 04:39:53;;;;;;;12.43;3.42;;;11.20;99.90;;;;;;5050022;28;20501;-83
2023/12/24 04:42:18;;;;;;;15.80;2.58;;;11.90;99.90;;;;;;5050462;28;20049;-87
2023/12/24 04:44:44;;;;;;;14.70;3.33;;;11.40;99.90;;;;;;5049816;28;20033;-84
2023/12/24 04:47:10;;;;;;;18.30;2.72;;;;;;;;;;5032053;28;20116;-87
2023/12/24 04:49:37;;;;;;;20.50;3.28;;;10.30;99.90;;;;;;5032364;28;20075;-84
2023/12/24 04:52:03;;;;;;;15.75;2.83;;;12.30;99.90;;;;;;5050060;28;20021;-85
2023/12/24 04:54:29;;;;;;;13.73;2.40;;;10.70;99.90;;;;;;5049900;28;20029;-83
2023/12/24 04:56:54;;;;;;;11.40;3.13;;;12.00;99.90;;;;;;5049630;28;20100;-83
2023/12/24 04:59:20;;;;;;;17.45;2.75;;;11.90;99.90;;;;;;5050291;28;20021;-84
2023/12/24 05:01:47;;;;;;;17.27;2.85;;;10.00;99.90;;;;;;5049972;28;20033;-84
2023/12/24 05:04:13;;;;;;;16.23;2.78;;;11.10;99.90;;;;;;5049663;28;20492;-84
2023/12/24 05:06:39;;;;;;;15.93;2.60;;;11.20;99.90;;;;;;5049632;28;20029;-83
2023/12/24 05:09:04;;;;;;;16.30;2.50;;;11.30;99.90;;;;;;5049629;28;20021;-82
2023/12/24 05:11:30;;;;;;;15.23;2.72;;;11.00;99.90;;;;;;5049272;28;20029;-83
2023/12/24 05:13:55;;;;;;;15.82;2.72;;;10.90;99.90;;;;;;5049490;28;20079;-86
2023/12/24 05:16:21;;;;;;;10.45;2.10;;;11.40;99.90;;;;;;5049640;28;20037;-83
2023/12/24 05:18:46;;;;;;;19.15;2.80;;;10.20;99.90;;;;;;5050231;28;20501;-83
2023/12/24 05:21:12;;;;;;;17.73;2.85;;;11.20;99.90;;;;;;5031499;28;20048;-84
2023/12/24 05:23:38;;;;;;;13.15;2.60;;;12.10;99.90;;;;;;5049482;28;20108;-84
2023/12/24 05:26:03;;;;;;;11.48;2.45;;;11.70;99.90;;;;;;5049409;28;20029;-83
2023/12/24 05:28:29;;;;;;;13.65;2.95;;;11.90;99.90;;;;;;5049336;28;20099;-83
2023/12/24 05:30:54;;;;;;;16.10;2.75;;;11.60;99.90;;;;;;5049297;28;20491;-83
2023/12/24 05:33:20;;;;;;;12.07;2.55;;;11.40;99.90;;;;;;5049272;28;20112;-84
2023/12/24 05:35:46;;;;;;;13.40;2.92;;;11.90;99.90;;;;;;5030911;28;20032;-83
2023/12/24 05:38:12;;;;;;;18.23;2.50;;;;;;;;;;5049144;28;20272;-88
2023/12/24 05:40:37;;;;;;;16.35;2.58;;;10.60;99.90;;;;;;5049080;28;20436;-83
2023/12/24 05:43:03;;;;;;;12.82;2.70;;;11.10;99.90;;;;;;5047756;28;20192;-83
2023/12/24 05:45:29;;;;;;;16.75;3.08;;;11.90;99.90;;;;;;5049107;28;20059;-83
2023/12/24 05:47:54;;;;;;;14.35;2.50;;;10.90;99.90;;;;;;5048999;28;20071;-83
2023/12/24 05:50:22;;;;;;;16.58;2.95;;;11.20;99.90;;;;;;5049533;28;20029;-83
2023/12/24 05:52:47;;;;;;;9.90;2.38;;;10.50;99.90;;;;;;5034038;28;20021;-83
2023/12/24 05:55:13;;;;;;;14.50;2.95;;;12.00;99.90;;;;;;5048580;28;20733;-83
2023/12/24 05:57:39;;;;;;;15.60;2.80;;;11.30;99.90;;;;;;5047265;28;20017;-87
2023/12/24 06:00:05;;;;;;;15.52;2.85;;;11.10;99.90;;;;;;5059718;28;20029;-83
2023/12/24 06:02:30;;;;;;;16.88;2.85;;;10.40;99.90;;;;;;5048415;28;20500;-83
2023/12/24 06:04:56;;;;;;;21.80;3.92;;;11.40;99.90;;;;;;5061959;28;20071;-86
2023/12/24 06:07:22;;;;;;;10.52;2.20;;;11.60;99.90;;;;;;5040716;28;20116;-84
2023/12/24 06:09:47;;;;;;;16.10;2.83;;;11.60;99.90;;;;;;5060378;28;20082;-83
2023/12/24 06:12:13;;;;;;;10.45;3.03;;;11.70;99.90;;;;;;5048639;28;20032;-84
2023/12/24 06:14:38;;;;;;;15.70;3.13;;;11.80;99.90;;;;;;5044841;28;20029;-87
2023/12/24 06:17:04;;;;;;;12.15;2.70;;;11.50;99.90;;;;;;5046278;28;20118;-83
2023/12/24 06:19:29;;;;;;;15.23;2.78;;;11.70;99.90;;;;;;5047815;28;20028;-83
2023/12/24 06:21:55;;;;;;;12.55;2.75;;;11.80;99.90;;;;;;5048049;28;20020;-83
2023/12/24 06:24:21;;;;;;;14.25;2.85;;;10.70;99.90;;;;;;5035908;28;20442;-83
2023/12/24 06:26:49;;;;;;;17.98;3.47;;;11.10;99.90;;;;;;5028649;28;20021;-84
2023/12/24 06:29:14;;;;;;;14.77;2.75;;;10.10;99.90;;;;;;5028783;28;20025;-83
2023/12/24 06:31:40;;;;;;;16.08;3.08;;;11.60;99.90;;;;;;5010985;28;20037;-84
2023/12/24 06:34:06;;;;;;;11.40;2.70;;;11.60;99.90;;;;;;5042302;28;20420;-83
2023/12/24 06:36:31;;;;;;;9.57;2.30;;;11.30;99.90;;;;;;5048577;28;20025;-83
2023/12/24 06:38:57;;;;;;;15.93;3.28;;;11.40;99.90;;;;;;5030616;28;20087;-83
2023/12/24 06:41:23;;;;;;;16.60;3.28;;;11.40;99.90;;;;;;5049356;28;20064;-84
2023/12/24 06:43:49;;;;;;;18.33;3.58;;;11.30;99.90;;;;;;5048353;28;20036;-83
2023/12/24 06:46:15;;;;;;;12.40;3.03;;;11.60;99.90;;;;;;5051059;28;20021;-84
2023/12/24 06:48:41;;;;;;;17.17;3.72;;;11.40;99.90;;;;;;5049550;28;20547;-84
2023/12/24 06:51:07;;;;;;;13.57;3.38;;;11.30;99.90;;;;;;5051699;28;20099;-88
2023/12/24 06:53:33;;;;;;;19.40;4.00;;;11.00;99.90;;;;;;5052190;28;20025;-86
2023/12/24 06:55:59;;;;;;;13.50;2.80;;;11.00;99.90;;;;;;5051829;28;20032;-87
2023/12/24 06:58:25;;;;;;;16.67;3.08;;;11.50;99.90;;;;;;5052509;28;20401;-84
2023/12/24 07:00:50;;;;;;;14.88;2.70;;;11.70;99.90;;;;;;5052072;28;20021;-88
2023/12/24 07:03:17;;;;;;;17.92;3.42;;;;;;;;;;5047643;28;20128;-85
2023/12/24 07:05:43;;;;;;;14.25;3.38;;;10.60;99.90;;;;;;5046671;28;20029;-84
2023/12/24 07:08:08;;;;;;;18.15;3.40;;;11.50;99.90;;;;;;5051615;28;20028;-85
2023/12/24 07:10:34;;;;;;;14.55;3.00;;;11.50;99.90;;;;;;5051373;28;20397;-86
2023/12/24 07:13:00;;;;;;;16.13;2.75;;;11.40;99.90;;;;;;5051587;28;20020;-84
2023/12/24 07:15:26;;;;;;;16.77;3.40;;;12.00;99.90;;;;;;5052314;28;20059;-84
2023/12/24 07:17:51;;;;;;;16.98;2.97;;;11.90;99.90;;;;;;5051651;28;20025;-84
2023/12/24 07:20:17;;;;;;;13.85;2.92;;;;;;;;;;5050833;28;20542;-84
2023/12/24 07:22:43;;;;;;;11.75;2.85;;;11.00;99.90;;;;;;5051520;28;20099;-83
2023/12/24 07:25:10;;;;;;;16.52;3.28;;;12.10;99.90;;;;;;5051537;28;20451;-84
2023/12/24 07:27:35;;;;;;;14.00;2.67;;;12.30;99.90;;;;;;5051427;28;20052;-83
2023/12/24 07:30:01;;;;;;;15.40;2.97;;;11.60;99.90;;;;;;5050706;28;20068;-85
2023/12/24 07:32:27;;;;;;;16.30;3.58;;;11.10;99.90;;;;;;5033166;28;20017;-83
2023/12/24 07:34:52;;;;;;;15.05;3.05;;;11.70;99.90;;;;;;5051430;28;20505;-86
2023/12/24 07:37:18;;;;;;;19.00;2.97;;;;;;;;;;5051303;28;20844;-85
2023/12/24 07:39:44;;;;;;;18.60;3.08;;;11.30;99.90;;;;;;5049437;28;20094;-88
2023/12/24 07:42:10;;;;;;;17.77;3.55;;;12.60;99.90;;;;;;5051255;28;20376;-84
2023/12/24 07:44:35;;;;;;;19.85;4.35;;;12.00;99.90;;;;;;5050823;28;20477;-86
2023/12/24 07:47:01;;;;;;;17.30;2.90;;;11.90;99.90;;;;;;5050984;28;20485;-86
2023/12/24 07:49:26;;;;;;;20.55;3.28;;;11.80;99.90;;;;;;5051311;28;20025;-86
2023/12/24 07:51:52;;;;;;;16.08;3.67;;;12.10;99.90;;;;;;5050689;28;20017;-86
2023/12/24 07:54:18;;;;;;;17.58;3.05;;;12.20;99.90;;;;;;5050648;28;20025;-87
2023/12/24 07:56:44;;;;;;;12.18;2.45;;;11.40;99.90;;;;;;5049339;28;20044;-84
2023/12/24 07:59:09;;;;;;;13.13;2.78;;;12.50;99.90;;;;;;5050506;28;20032;-83
2023/12/24 08:01:37;;;;;;;17.35;3.25;;;12.10;99.90;;;;;;5032465;28;20065;-83
2023/12/24 08:04:03;;;;;;;19.70;3.15;;;11.50;99.90;;;;;;5050337;28;20040;-84
2023/12/24 08:06:29;;;;;;;15.95;3.08;;;11.20;99.90;;;;;;5050342;28;20106;-84
2023/12/24 08:08:55;;;;;;;15.27;2.95;;;12.00;99.90;;;;;;5048918;28;20052;-85
2023/12/24 08:11:21;;;;;;;12.95;3.08;;;11.80;99.90;;;;;;5033069;28;20021;-86
2023/12/24 08:13:47;;;;;;;16.33;3.13;;;11.60;99.90;;;;;;5040879;28;20029;-87
2023/12/24 08:16:12;;;;;;;15.73;3.35;;;11.60;99.90;;;;;;5049353;28;20101;-83
2023/12/24 08:18:38;;;;;;;17.45;2.95;;;11.10;99.90;;;;;;5057544;28;20024;-85
2023/12/24 08:21:06;;;;;;;15.10;2.92;;;11.60;99.90;;;;;;5049320;28;20079;-87
2023/12/24 08:23:32;;;;;;;22.00;3.47;;;12.10;99.90;;;;;;5047552;28;20021;-86
2023/12/24 08:25:58;;;;;;;15.43;3.35;;;12.00;99.90;;;;;;5048584;28;20043;-83
2023/12/24 08:28:23;;;;;;;18.63;3.30;;;11.40;99.90;;;;;;5047904;28;20094;-88
2023/12/24 08:30:49;;;;;;;15.80;2.92;;;11.30;99.90;;;;;;5053328;28;20412;-86
2023/12/24 08:33:14;;;;;;;13.80;2.97;;;12.10;99.90;;;;;;5049514;28;20025;-86
2023/12/24 08:35:40;;;;;;;18.33;3.72;;;11.90;99.90;;;;;;5049270;28;20472;-87
2023/12/24 08:38:05;;;;;;;13.65;2.75;;;12.90;99.90;;;;;;5051139;28;20021;-87
2023/12/24 08:40:31;;;;;;;14.30;2.83;;;12.00;99.90;;;;;;5059825;28;20029;-84
2023/12/24 08:42:57;;;;;;;19.33;3.47;;;11.90;99.90;;;;;;5052038;28;20029;-84
2023/12/24 08:45:23;;;;;;;18.83;3.03;;;11.90;99.90;;;;;;5050024;28;20025;-88
2023/12/24 08:47:48;;;;;;;13.70;3.45;;;12.10;99.90;;;;;;5049724;28;20469;-85
2023/12/24 08:50:14;;;;;;;22.00;3.60;;;12.40;99.90;;;;;;5049704;28;20032;-85
2023/12/24 08:52:40;;;;;;;14.65;3.65;;;12.80;99.90;;;;;;5031725;28;20117;-85
2023/12/24 08:55:06;;;;;;;17.48;4.05;;;12.10;99.90;;;;;;5049678;28;20036;-87
2023/12/24 08:57:32;;;;;;;17.63;3.92;;;11.70;99.90;;;;;;5050114;28;20020;-85
2023/12/24 08:59:57;;;;;;;23.45;3.95;;;12.00;99.90;;;;;;5063172;28;20032;-84
2023/12/24 09:02:23;;;;;;;14.65;2.92;;;12.90;99.90;;;;;;5066958;28;20040;-85
2023/12/24 09:04:49;;;;;;;19.38;3.20;;;12.60;99.90;;;;;;5059817;28;20044;-85
2023/12/24 09:07:17;;;;;;;13.82;3.10;;;12.70;99.90;;;;;;5063851;28;20052;-84
2023/12/24 09:09:43;;;;;;;17.55;3.60;;;12.30;99.90;;;;;;5069499;28;20103;-85
2023/12/24 09:12:09;;;;;;;17.50;4.00;;;12.80;99.90;;;;;;5068311;28;20116;-85
2023/12/24 09:14:35;;;;;;;17.85;3.38;;;12.80;99.90;;;;;;5049382;28;20036;-84
2023/12/24 09:17:00;;;;;;;19.00;2.95;;;12.60;99.90;;;;;;5070353;28;20040;-85
2023/12/24 09:19:26;;;;;;;20.88;3.15;;;13.00;99.90;;;;;;5045785;28;20037;-85
2023/12/24 09:21:51;;;;;;;20.00;3.13;;;12.40;99.90;;;;;;5054868;28;20016;-84
2023/12/24 09:24:17;;;;;;;20.42;3.33;;;12.30;99.90;;;;;;5065105;28;20033;-84
2023/12/24 09:26:42;;;;;;;22.83;3.60;;;12.80;99.90;;;;;;5061129;28;20083;-85
2023/12/24 09:29:10;;;;;;;23.10;3.13;;;12.50;99.90;;;;;;5064572;28;20032;-84
2023/12/24 09:31:36;;;;;;;20.67;3.30;;;12.80;99.90;;;;;;5059697;28;20499;-84
2023/12/24 09:34:02;;;;;;;17.08;3.22;;;13.10;99.90;;;;;;5059334;28;20062;-84
2023/12/24 09:36:28;;;;;;;23.02;3.40;;;12.80;99.90;;;;;;5065655;28;20017;-83
2023/12/24 09:38:54;;;;;;;19.80;3.47;;;;;;;;;;5046566;28;20225;-84
2023/12/24 09:41:20;;;;;;;25.17;3.30;;;12.30;99.90;;;;;;5040979;28;20083;-83
2023/12/24 09:43:46;;;;;;;17.63;3.60;;;12.70;99.90;;;;;;5064965;28;20033;-84
2023/12/24 09:46:12;;;;;;;23.50;3.85;;;13.00;99.90;;;;;;5061685;28;20481;-84
2023/12/24 09:48:37;;;;;;;15.95;2.70;;;13.00;99.90;;;;;;5065126;28;20400;-84
2023/12/24 09:51:03;;;;;;;14.77;3.00;;;13.50;99.90;;;;;;5053580;28;20021;-84
2023/12/24 09:53:30;;;;;;;19.45;3.85;;;12.70;99.90;;;;;;5067586;28;20541;-84
2023/12/24 09:55:56;;;;;;;18.90;3.08;;;13.40;99.90;;;;;;5063214;28;20052;-84
2023/12/24 09:58:22;;;;;;;14.52;3.10;;;13.20;99.90;;;;;;5067681;28;20029;-84
2023/12/24 10:00:48;;;;;;;14.80;2.85;;;;;;;;;;5061758;28;20032;-89
2023/12/24 10:03:13;;;;;;;24.50;4.03;;;12.60;99.90;;;;;;5055289;28;20036;-87
2023/12/24 10:05:59;;;;;;;13.15;2.92;;;13.20;99.90;;;;;;5048733;28;20029;-85
2023/12/24 10:08:25;;;;;;;16.25;2.88;;;13.00;99.90;;;;;;5049002;28;20075;-83
2023/12/24 10:10:51;;;;;;;15.05;2.47;;;12.90;99.90;;;;;;5049042;28;20110;-86
2023/12/24 10:13:20;;;;;;;15.85;2.78;;;13.30;99.90;;;;;;5049115;28;20029;-92
2023/12/24 10:15:46;;;;;;;18.17;3.13;;;13.10;99.90;;;;;;5049033;28;20021;-84
2023/12/24 10:18:19;;;;;;;19.30;3.25;;;13.10;99.90;;;;;;5048935;28;20055;-83
2023/12/24 10:20:45;;;;;;;21.67;3.65;;;12.60;99.90;;;;;;5050508;28;20021;-83
2023/12/24 10:23:11;;;;;;;16.48;2.75;;;13.50;99.90;;;;;;5055531;28;20032;-90
2023/12/24 10:25:37;;;;;;;15.02;3.15;;;13.80;99.90;;;;;;5066670;28;20095;-83
2023/12/24 10:28:06;;;;;;;20.52;3.08;;;13.10;99.90;;;;;;5066763;28;20103;-93
2023/12/24 10:30:33;;;;;;;17.13;3.17;;;12.50;99.90;;;;;;5071083;28;20036;-93
2023/12/24 10:33:09;;;;;;;20.80;3.28;;;12.90;99.90;;;;;;5052795;28;20433;-84
2023/12/24 10:35:35;;;;;;;20.83;3.08;;;12.80;99.90;;;;;;5072323;28;20048;-84
2023/12/24 10:38:15;;;;;;;21.92;4.20;;;13.20;99.90;;;;;;5055278;28;20054;-92
2023/12/24 10:40:42;;;;;;;16.15;3.35;;;13.40;99.90;;;;;;5069710;28;20061;-84
2023/12/24 10:43:08;;;;;;;23.83;3.33;;;13.30;99.90;;;;;;5065948;28;20044;-84
2023/12/24 10:45:34;;;;;;;17.83;3.38;;;12.90;99.90;;;;;;5061380;28;20135;-84
2023/12/24 10:48:00;;;;;;;21.05;3.33;;;13.50;99.90;;;;;;5064513;28;20524;-90
2023/12/24 10:50:25;;;;;;;18.15;3.25;;;13.40;99.90;;;;;;5071286;28;20115;-83
2023/12/24 10:52:52;;;;;;;21.48;2.95;;;13.40;99.90;;;;;;5070519;28;20048;-91
2023/12/24 10:55:18;;;;;;;20.48;3.67;;;13.60;99.90;;;;;;5072263;28;20020;-85
2023/12/24 10:58:06;;;;;;;17.60;3.10;;;13.00;99.90;;;;;;5068228;28;20040;-83
2023/12/24 11:00:32;;;;;;;19.15;3.80;;;13.00;99.90;;;;;;5053126;28;20029;-91
2023/12/24 11:02:57;;;;;;;11.07;2.65;;;13.80;99.90;;;;;;5068797;28;20041;-89
2023/12/24 11:05:45;;;;;;;15.30;3.40;;;13.40;99.90;;;;;;5057654;28;20029;-84
2023/12/24 11:08:28;;;;;;;12.87;2.90;;;13.50;99.90;;;;;;5063208;28;20032;-90
2023/12/24 11:10:57;;;;;;;18.20;3.95;;;13.30;99.90;;;;;;5053350;28;20277;-93
2023/12/24 11:13:36;;;;;;;22.70;4.05;;;13.50;99.90;;;;;;5051220;28;20036;-91
2023/12/24 11:16:07;;;;;;;16.55;3.00;;;13.90;99.90;;;;;;5056886;28;20058;-93
2023/12/24 11:18:46;;;;;;;22.15;3.78;;;14.00;99.90;;;;;;5062464;28;20024;-93
2023/12/24 11:21:21;;;;;;;20.48;3.85;;;13.80;99.90;;;;;;5052506;28;20487;-90
2023/12/24 11:24:10;;;;;;;18.60;3.25;;;13.90;99.90;;;;;;5071894;28;20119;-86
2023/12/24 11:26:36;;;;;;;18.27;3.88;;;13.10;99.90;;;;;;5060785;28;20024;-86
2023/12/24 11:29:42;;;;;;;19.95;3.47;;;13.40;99.90;;;;;;5061237;28;20165;-84
2023/12/24 11:32:25;;;;;;;21.40;3.45;;;13.00;99.90;;;;;;5071365;28;20021;-84
2023/12/24 11:34:58;;;;;;;18.65;3.42;;;13.80;99.90;;;;;;5059337;28;20031;-85
2023/12/24 11:37:31;;;;;;;14.32;3.22;;;13.20;99.90;;;;;;5042557;28;20432;-89
2023/12/24 11:40:14;;;;;;;15.93;2.58;;;13.20;99.90;;;;;;5046557;28;20028;-83
2023/12/24 11:42:48;;;;;;;14.30;2.90;;;13.80;99.90;;;;;;5063877;28;20031;-94
2023/12/24 11:45:23;;;;;;;18.65;3.25;;;13.80;99.90;;;;;;5045931;28;20058;-84
2023/12/24 11:47:52;;;;;;;18.67;3.45;;;14.00;99.90;;;;;;5050909;28;20029;-84
2023/12/24 11:50:18;;;;;;;18.75;3.47;;;13.90;99.90;;;;;;5051517;28;20027;-90
2023/12/24 11:52:46;;;;;;;19.30;3.75;;;13.40;99.90;;;;;;5051904;28;20029;-83
2023/12/24 11:55:21;;;;;;;17.08;3.75;;;14.10;99.90;;;;;;5049684;28;20124;-88
2023/12/24 11:57:50;;;;;;;16.35;4.78;;;14.00;99.90;;;;;;5032449;28;20045;-84
2023/12/24 12:00:25;;;;;;;19.88;3.92;;;14.40;99.90;;;;;;5050024;28;20033;-83
2023/12/24 12:02:54;;;;;;;20.38;3.58;;;13.60;99.90;;;;;;5042270;28;20128;-84
2023/12/24 12:05:20;;;;;;;348.60;120.88;;;;;;;;;;5031591;28;20100;-90
2023/12/24 12:07:46;;;;;;;180.90;72.82;;;;;;;;;;5031304;28;20109;-86
2023/12/24 12:10:12;;;;;;;214.68;85.32;;;;;;;;;;5032064;28;20040;-86
2023/12/24 12:12:38;;;;;;;172.05;71.60;;;;;;;;;;5033599;28;20033;-82
2023/12/24 12:15:04;;;;;;;120.22;54.50;;;;;;;;;;5032148;28;20033;-83
2023/12/24 12:17:30;;;;;;;53.30;28.23;;;;;;;;;;5050486;28;20142;-82
2023/12/24 12:19:56;;;;;;;27.27;15.18;;;;;;;;;;5050526;28;20028;-84
2023/12/24 12:22:22;;;;;;;19.67;4.40;;;;;;;;;;5032443;28;20025;-84
2023/12/24 12:24:48;;;;;;;19.70;4.35;;;;;;;;;;5049640;28;20035;-90
